createdAt,value
2023-03-31T00:01:41.832Z,10.08
2023-03-31T00:04:13.663Z,10.01
2023-03-31T00:06:46.041Z,9.97
2023-03-31T00:09:17.515Z,9.98
2023-03-31T00:11:49.291Z,10.00
2023-03-31T00:14:20.782Z,10.07
2023-03-31T00:16:52.647Z,10.01
2023-03-31T00:19:24.236Z,10.10
2023-03-31T00:21:55.715Z,10.11
2023-03-31T00:24:27.157Z,10.11
2023-03-31T00:26:58.622Z,10.15
2023-03-31T00:29:30.097Z,10.16
2023-03-31T00:32:01.603Z,9.12
2023-03-31T00:34:33.093Z,10.15
2023-03-31T00:37:04.936Z,10.20
2023-03-31T00:39:36.411Z,10.16
2023-03-31T00:42:07.905Z,10.17
2023-03-31T00:44:39.398Z,10.18
2023-03-31T00:47:11.178Z,10.15
2023-03-31T00:49:42.636Z,10.14
2023-03-31T00:52:14.452Z,10.03
2023-03-31T00:54:45.956Z,10.01
2023-03-31T00:57:17.820Z,9.95
2023-03-31T00:59:49.336Z,9.88
2023-03-31T01:02:21.307Z,9.84
2023-03-31T01:04:52.830Z,9.78
2023-03-31T01:07:24.605Z,9.69
2023-03-31T01:09:56.057Z,9.67
2023-03-31T01:12:27.867Z,9.61
2023-03-31T01:14:59.319Z,9.60
2023-03-31T01:17:31.274Z,9.59
2023-03-31T01:20:02.838Z,9.55
2023-03-31T01:22:34.670Z,9.53
2023-03-31T01:25:06.114Z,9.52
2023-03-31T01:27:37.582Z,9.46
2023-03-31T01:30:09.048Z,9.50
2023-03-31T01:32:40.754Z,9.49
2023-03-31T01:35:12.216Z,9.50
2023-03-31T01:37:44.068Z,9.53
2023-03-31T01:40:15.514Z,9.54
2023-03-31T01:42:47.316Z,9.52
2023-03-31T01:45:18.774Z,9.51
2023-03-31T01:47:50.427Z,9.57
2023-03-31T01:50:21.944Z,9.58
2023-03-31T01:52:53.712Z,9.60
2023-03-31T01:55:25.155Z,9.65
2023-03-31T01:57:56.620Z,9.67
2023-03-31T02:00:28.066Z,9.71
2023-03-31T02:02:59.691Z,9.70
2023-03-31T02:05:31.174Z,9.73
2023-03-31T02:08:03.001Z,9.74
2023-03-31T02:10:34.475Z,9.75
2023-03-31T02:13:06.141Z,9.79
2023-03-31T02:15:37.593Z,9.78
2023-03-31T02:18:09.061Z,9.80
2023-03-31T02:20:40.523Z,9.79
2023-03-31T02:23:12.328Z,9.79
2023-03-31T02:25:43.794Z,9.78
2023-03-31T02:28:15.611Z,9.79
2023-03-31T02:30:47.062Z,9.78
2023-03-31T02:33:18.510Z,9.82
2023-03-31T02:35:49.998Z,9.80
2023-03-31T02:38:21.728Z,9.84
2023-03-31T02:40:53.196Z,9.82
2023-03-31T02:43:24.997Z,9.82
2023-03-31T02:45:56.493Z,9.81
2023-03-31T02:48:28.333Z,9.82
2023-03-31T02:50:59.773Z,9.86
2023-03-31T02:53:31.568Z,9.81
2023-03-31T02:56:03.095Z,9.82
2023-03-31T02:58:34.999Z,9.83
2023-03-31T03:01:06.522Z,9.82
2023-03-31T03:03:38.276Z,9.83
2023-03-31T03:06:09.940Z,9.82
2023-03-31T03:08:41.864Z,9.81
2023-03-31T03:11:13.309Z,9.81
2023-03-31T03:13:45.035Z,9.81
2023-03-31T03:16:16.624Z,9.80
2023-03-31T03:18:48.380Z,9.80
2023-03-31T03:21:19.846Z,9.80
2023-03-31T03:23:51.500Z,9.80
2023-03-31T03:26:22.956Z,9.80
2023-03-31T03:28:54.444Z,9.82
2023-03-31T03:31:26.292Z,9.79
2023-03-31T03:33:58.439Z,9.78
2023-03-31T03:36:29.897Z,9.82
2023-03-31T03:39:01.577Z,9.78
2023-03-31T03:41:33.074Z,9.81
2023-03-31T03:44:04.827Z,9.85
2023-03-31T03:46:36.331Z,9.80
2023-03-31T03:49:07.929Z,9.86
2023-03-31T03:51:39.424Z,9.84
2023-03-31T03:54:11.173Z,9.85
2023-03-31T03:56:42.677Z,9.84
2023-03-31T03:59:14.632Z,9.82
2023-03-31T04:01:46.180Z,9.82
2023-03-31T04:04:18.022Z,9.86
2023-03-31T04:06:49.475Z,9.79
2023-03-31T04:09:21.134Z,9.81
2023-03-31T04:11:52.642Z,9.75
2023-03-31T04:14:24.309Z,9.78
2023-03-31T04:16:55.754Z,9.73
2023-03-31T04:19:27.549Z,9.73
2023-03-31T04:21:59.239Z,9.67
2023-03-31T04:24:30.828Z,9.67
2023-03-31T04:27:02.351Z,9.64
2023-03-31T04:29:34.217Z,9.59
2023-03-31T04:32:05.763Z,9.54
2023-03-31T04:34:37.684Z,9.53
2023-03-31T04:37:09.175Z,9.48
2023-03-31T04:39:41.057Z,9.46
2023-03-31T04:42:12.516Z,9.48
2023-03-31T04:44:44.246Z,9.50
2023-03-31T04:47:15.726Z,9.48
2023-03-31T04:49:47.617Z,9.46
2023-03-31T04:52:19.106Z,9.43
2023-03-31T04:54:50.561Z,9.44
2023-03-31T04:57:22.153Z,9.44
2023-03-31T04:59:53.660Z,9.52
2023-03-31T05:02:25.752Z,9.51
2023-03-31T05:04:57.300Z,9.56
2023-03-31T05:07:28.954Z,9.54
2023-03-31T05:10:00.492Z,9.56
2023-03-31T05:12:32.286Z,9.51
2023-03-31T05:15:03.819Z,9.52
2023-03-31T05:17:37.771Z,9.53
2023-03-31T05:20:09.264Z,9.51
2023-03-31T05:22:42.597Z,9.56
2023-03-31T05:25:15.430Z,9.56
2023-03-31T05:27:47.068Z,9.57
2023-03-31T05:30:18.507Z,9.62
2023-03-31T05:32:50.304Z,9.69
2023-03-31T05:35:21.823Z,9.75
2023-03-31T05:37:53.653Z,9.82
2023-03-31T05:40:25.114Z,10.01
2023-03-31T05:42:56.621Z,10.12
2023-03-31T05:45:28.104Z,10.29
2023-03-31T05:47:59.669Z,10.34
2023-03-31T05:50:31.144Z,10.37
2023-03-31T05:53:02.612Z,10.42
2023-03-31T05:55:34.082Z,10.41
2023-03-31T05:58:05.840Z,10.54
2023-03-31T06:00:37.286Z,10.39
2023-03-31T06:03:09.246Z,10.14
2023-03-31T06:05:40.754Z,10.02
2023-03-31T06:08:12.514Z,10.06
2023-03-31T06:10:43.988Z,9.97
2023-03-31T06:13:15.943Z,9.89
2023-03-31T06:15:47.400Z,10.05
2023-03-31T06:18:21.664Z,10.19
2023-03-31T06:20:53.114Z,10.32
2023-03-31T06:23:24.922Z,10.56
2023-03-31T06:25:56.405Z,10.36
2023-03-31T06:28:28.070Z,10.42
2023-03-31T06:30:59.500Z,10.45
2023-03-31T06:33:31.156Z,10.49
2023-03-31T06:36:02.640Z,10.71
2023-03-31T06:38:34.372Z,10.85
2023-03-31T06:41:05.962Z,10.84
2023-03-31T06:43:37.733Z,11.13
2023-03-31T06:46:11.885Z,11.59
2023-03-31T06:48:43.840Z,11.56
2023-03-31T06:51:15.296Z,11.52
2023-03-31T06:53:47.077Z,11.93
2023-03-31T06:56:18.535Z,11.87
2023-03-31T06:58:50.215Z,12.06
2023-03-31T07:01:21.738Z,12.18
2023-03-31T07:03:53.638Z,12.16
2023-03-31T07:06:25.093Z,12.44
2023-03-31T07:08:56.565Z,12.81
2023-03-31T07:11:28.004Z,13.10
2023-03-31T07:13:59.483Z,12.71
2023-03-31T07:16:31.017Z,12.77
2023-03-31T07:19:02.897Z,12.99
2023-03-31T07:21:34.363Z,13.18
2023-03-31T07:24:06.029Z,13.23
2023-03-31T07:26:37.518Z,13.64
2023-03-31T07:29:09.369Z,13.78
2023-03-31T07:31:40.866Z,13.82
2023-03-31T07:34:12.744Z,14.17
2023-03-31T07:36:44.299Z,13.99
2023-03-31T07:39:16.094Z,13.71
2023-03-31T07:41:47.588Z,13.96
2023-03-31T07:44:19.334Z,14.06
2023-03-31T07:46:50.891Z,14.25
2023-03-31T07:49:22.374Z,14.27
2023-03-31T07:51:53.839Z,14.46
2023-03-31T07:54:25.538Z,14.29
2023-03-31T07:56:57.071Z,14.12
2023-03-31T07:59:28.893Z,14.22
2023-03-31T08:02:00.412Z,14.15
2023-03-31T08:04:32.061Z,14.12
2023-03-31T08:07:03.571Z,14.21
2023-03-31T08:09:35.378Z,14.58
2023-03-31T08:12:06.831Z,14.81
2023-03-31T08:14:41.605Z,14.75
2023-03-31T08:17:13.359Z,14.86
2023-03-31T08:19:45.240Z,15.62
2023-03-31T08:22:16.740Z,15.69
2023-03-31T08:24:48.230Z,15.24
2023-03-31T08:27:19.694Z,14.96
2023-03-31T08:29:51.252Z,14.86
2023-03-31T08:32:22.791Z,15.36
2023-03-31T08:34:54.407Z,15.14
2023-03-31T08:37:25.887Z,14.99
2023-03-31T08:39:57.375Z,14.93
2023-03-31T08:42:28.848Z,15.02
2023-03-31T08:45:00.325Z,14.70
2023-03-31T08:47:31.811Z,14.36
2023-03-31T08:50:03.453Z,14.75
2023-03-31T08:52:34.901Z,14.75
2023-03-31T08:55:06.380Z,15.15
2023-03-31T08:57:37.841Z,15.02
2023-03-31T09:00:09.604Z,14.77
2023-03-31T09:02:41.249Z,15.44
2023-03-31T09:05:12.980Z,15.01
2023-03-31T09:07:44.438Z,15.71
2023-03-31T09:10:16.031Z,16.80
2023-03-31T09:12:47.483Z,17.21
2023-03-31T09:15:19.091Z,16.90
2023-03-31T09:17:50.614Z,16.88
2023-03-31T09:20:22.312Z,16.41
2023-03-31T09:22:53.796Z,16.33
2023-03-31T09:25:25.387Z,16.30
2023-03-31T09:27:56.894Z,16.36
2023-03-31T09:30:28.387Z,16.21
2023-03-31T09:32:59.893Z,16.06
2023-03-31T09:35:31.762Z,15.95
2023-03-31T09:38:03.243Z,15.57
2023-03-31T09:40:34.969Z,15.39
2023-03-31T09:43:06.484Z,15.44
2023-03-31T09:45:38.347Z,15.26
2023-03-31T09:48:09.932Z,15.54
2023-03-31T09:50:41.728Z,15.72
2023-03-31T09:53:13.368Z,15.88
2023-03-31T09:55:44.878Z,15.18
2023-03-31T09:58:18.199Z,14.86
2023-03-31T10:00:49.663Z,14.60
2023-03-31T10:03:21.500Z,14.69
2023-03-31T10:05:52.981Z,14.71
2023-03-31T10:08:24.856Z,14.08
2023-03-31T10:10:56.351Z,14.38
2023-03-31T10:13:28.213Z,14.26
2023-03-31T10:15:59.727Z,14.38
2023-03-31T10:18:31.391Z,14.91
2023-03-31T10:21:03.001Z,15.54
2023-03-31T10:23:34.836Z,15.76
2023-03-31T10:26:06.319Z,16.00
2023-03-31T10:28:38.122Z,16.20
2023-03-31T10:31:09.924Z,15.87
2023-03-31T10:33:41.925Z,16.13
2023-03-31T10:36:13.559Z,15.83
2023-03-31T10:38:45.292Z,15.61
2023-03-31T10:41:16.861Z,15.44
2023-03-31T10:43:48.721Z,15.10
2023-03-31T10:46:20.222Z,14.22
2023-03-31T10:48:52.001Z,14.00
2023-03-31T10:51:23.485Z,13.77
2023-03-31T10:53:54.983Z,14.02
2023-03-31T10:56:26.478Z,14.35
2023-03-31T10:59:05.138Z,14.54
2023-03-31T11:01:37.636Z,14.63
2023-03-31T11:04:09.546Z,14.69
2023-03-31T11:06:41.056Z,14.98
2023-03-31T11:09:12.551Z,15.75
2023-03-31T11:11:44.072Z,15.88
2023-03-31T11:14:15.546Z,16.10
2023-03-31T11:16:47.029Z,15.63
2023-03-31T11:19:18.866Z,15.82
2023-03-31T11:21:50.429Z,16.27
2023-03-31T11:24:21.951Z,16.55
2023-03-31T11:26:53.431Z,17.11
2023-03-31T11:29:24.936Z,16.58
2023-03-31T11:31:56.470Z,16.95
2023-03-31T11:34:28.198Z,13.96
2023-03-31T11:36:59.682Z,15.98
2023-03-31T11:39:31.509Z,15.82
2023-03-31T11:42:02.971Z,15.49
2023-03-31T11:44:34.785Z,14.99
2023-03-31T11:47:06.256Z,14.82
2023-03-31T11:49:37.747Z,15.27
2023-03-31T11:52:09.212Z,14.99
2023-03-31T11:54:40.700Z,15.19
2023-03-31T11:57:12.219Z,15.62
2023-03-31T11:59:44.096Z,15.22
2023-03-31T12:02:15.552Z,15.10
2023-03-31T12:04:47.038Z,15.22
2023-03-31T12:07:18.501Z,15.47
2023-03-31T12:09:50.331Z,15.58
2023-03-31T12:12:21.806Z,15.80
2023-03-31T12:14:53.296Z,16.20
2023-03-31T12:17:24.825Z,15.98
2023-03-31T12:19:56.350Z,14.59
2023-03-31T12:22:27.859Z,15.43
2023-03-31T12:24:59.342Z,15.28
2023-03-31T12:27:30.840Z,14.78
2023-03-31T12:30:02.743Z,13.27
2023-03-31T12:32:34.265Z,12.02
2023-03-31T12:35:05.985Z,11.87
2023-03-31T12:37:37.445Z,11.75
2023-03-31T12:40:09.311Z,11.52
2023-03-31T12:42:40.781Z,11.44
2023-03-31T12:45:12.610Z,11.41
2023-03-31T12:47:44.096Z,11.28
2023-03-31T12:50:15.773Z,11.47
2023-03-31T12:52:47.239Z,11.38
2023-03-31T12:55:19.028Z,11.63
2023-03-31T12:57:50.506Z,11.72
2023-03-31T13:00:22.352Z,11.83
2023-03-31T13:02:53.935Z,11.79
2023-03-31T13:05:25.829Z,11.61
2023-03-31T13:07:57.314Z,11.55
2023-03-31T13:10:29.141Z,11.47
2023-03-31T13:13:00.682Z,11.48
2023-03-31T13:15:32.580Z,11.40
2023-03-31T13:18:04.135Z,11.22
2023-03-31T13:20:36.214Z,10.81
2023-03-31T13:23:07.694Z,10.71
2023-03-31T13:25:39.388Z,10.53
2023-03-31T13:28:10.849Z,10.45
2023-03-31T13:30:42.490Z,10.56
2023-03-31T13:33:14.987Z,10.54
2023-03-31T13:35:47.826Z,10.54
2023-03-31T13:38:19.309Z,10.59
2023-03-31T13:40:51.052Z,10.54
2023-03-31T13:43:22.515Z,10.68
2023-03-31T13:45:54.127Z,10.84
2023-03-31T13:48:25.641Z,10.76
2023-03-31T13:50:57.126Z,10.83
2023-03-31T13:53:28.602Z,10.89
2023-03-31T13:56:00.126Z,10.92
2023-03-31T13:58:34.955Z,10.87
2023-03-31T14:01:07.269Z,10.89
2023-03-31T14:03:38.856Z,10.93
2023-03-31T14:06:10.838Z,10.91
2023-03-31T14:08:42.408Z,10.82
2023-03-31T14:11:14.239Z,10.93
2023-03-31T14:13:45.694Z,10.73
2023-03-31T14:16:17.510Z,10.70
2023-03-31T14:18:49.163Z,10.79
2023-03-31T14:21:21.127Z,10.61
2023-03-31T14:23:52.630Z,10.62
2023-03-31T14:26:24.558Z,10.68
2023-03-31T14:28:56.037Z,10.42
2023-03-31T14:31:27.743Z,10.44
2023-03-31T14:33:59.234Z,10.52
2023-03-31T14:36:31.127Z,10.30
2023-03-31T14:39:02.633Z,10.38
2023-03-31T14:41:34.318Z,10.41
2023-03-31T14:44:05.798Z,10.40
2023-03-31T14:46:37.620Z,10.43
2023-03-31T14:49:09.208Z,10.54
2023-03-31T14:51:40.806Z,10.43
2023-03-31T14:54:12.260Z,10.44
2023-03-31T14:56:44.124Z,10.57
2023-03-31T14:59:15.629Z,10.46
2023-03-31T15:01:47.433Z,10.50
2023-03-31T15:04:20.250Z,10.45
2023-03-31T15:06:52.198Z,10.54
2023-03-31T15:09:23.686Z,10.48
2023-03-31T15:11:55.181Z,10.64
2023-03-31T15:14:26.669Z,10.64
2023-03-31T15:16:58.228Z,10.70
2023-03-31T15:19:29.954Z,10.56
2023-03-31T15:22:01.476Z,10.69
2023-03-31T15:24:32.955Z,10.67
2023-03-31T15:27:04.638Z,10.83
2023-03-31T15:29:36.132Z,10.87
2023-03-31T15:32:08.260Z,10.89
2023-03-31T15:34:39.840Z,10.86
2023-03-31T15:37:11.451Z,10.81
2023-03-31T15:39:42.908Z,10.89
2023-03-31T15:42:14.755Z,11.03
2023-03-31T15:44:46.330Z,11.01
2023-03-31T15:47:17.949Z,10.94
2023-03-31T15:49:49.438Z,10.96
2023-03-31T15:52:21.042Z,10.84
2023-03-31T15:54:52.558Z,11.03
2023-03-31T15:57:24.187Z,11.00
2023-03-31T15:59:56.957Z,11.07
2023-03-31T16:02:29.172Z,11.16
2023-03-31T16:05:01.534Z,11.12
2023-03-31T16:07:33.132Z,11.13
2023-03-31T16:10:05.015Z,11.16
2023-03-31T16:12:36.508Z,11.25
2023-03-31T16:15:08.043Z,11.08
2023-03-31T16:17:39.561Z,11.19
2023-03-31T16:20:11.450Z,11.24
2023-03-31T16:22:42.925Z,11.25
2023-03-31T16:25:14.420Z,11.22
2023-03-31T16:27:45.887Z,11.19
2023-03-31T16:30:17.541Z,11.12
2023-03-31T16:32:49.074Z,11.12
2023-03-31T16:35:20.894Z,11.16
2023-03-31T16:37:52.388Z,11.20
2023-03-31T16:40:24.171Z,11.01
2023-03-31T16:42:55.671Z,10.96
2023-03-31T16:45:27.496Z,11.04
2023-03-31T16:48:02.221Z,11.04
2023-03-31T16:50:44.602Z,10.95
2023-03-31T16:53:16.104Z,10.88
2023-03-31T16:55:47.761Z,10.83
2023-03-31T16:58:19.240Z,10.74
2023-03-31T17:00:51.342Z,10.60
2023-03-31T17:03:22.998Z,10.53
2023-03-31T17:05:55.176Z,10.67
2023-03-31T17:08:28.375Z,10.49
2023-03-31T17:10:59.904Z,10.54
2023-03-31T17:13:31.389Z,10.47
2023-03-31T17:16:16.464Z,10.41
2023-03-31T17:18:50.489Z,10.43
2023-03-31T17:21:22.331Z,10.37
2023-03-31T17:23:53.788Z,10.36
2023-03-31T17:26:25.616Z,9.59
2023-03-31T17:28:57.080Z,10.29
2023-03-31T17:31:28.918Z,10.26
2023-03-31T17:34:00.464Z,10.22
2023-03-31T17:36:32.258Z,10.17
2023-03-31T17:39:03.756Z,9.46
2023-03-31T17:41:35.604Z,10.06
2023-03-31T17:44:07.068Z,10.03
2023-03-31T17:46:38.859Z,9.99
2023-03-31T17:49:10.358Z,10.01
2023-03-31T17:51:41.850Z,9.97
2023-03-31T17:54:13.392Z,9.98
2023-03-31T17:56:45.234Z,9.89
2023-03-31T17:59:16.716Z,9.91
2023-03-31T18:01:48.229Z,9.93
2023-03-31T18:04:19.809Z,9.95
2023-03-31T18:06:51.341Z,10.00
2023-03-31T18:09:22.856Z,10.05
2023-03-31T18:11:54.380Z,10.07
2023-03-31T18:14:25.853Z,10.07
2023-03-31T18:16:57.356Z,10.10
2023-03-31T18:19:28.828Z,10.12
2023-03-31T18:22:00.337Z,10.12
2023-03-31T18:24:31.829Z,10.15
2023-03-31T18:27:03.796Z,10.11
2023-03-31T18:29:35.316Z,10.10
2023-03-31T18:32:07.013Z,10.15
2023-03-31T18:34:38.598Z,10.08
2023-03-31T18:37:10.477Z,10.03
2023-03-31T18:39:41.998Z,9.99
2023-03-31T18:42:13.528Z,10.02
2023-03-31T18:44:44.996Z,9.98
2023-03-31T18:47:16.511Z,9.17
2023-03-31T18:49:47.973Z,9.98
2023-03-31T18:52:19.825Z,10.05
2023-03-31T18:54:51.400Z,10.05
2023-03-31T18:57:23.370Z,10.01
2023-03-31T18:59:54.844Z,10.05
2023-03-31T19:02:26.710Z,10.00
2023-03-31T19:04:58.252Z,9.98
2023-03-31T19:07:29.768Z,10.03
2023-03-31T19:10:01.312Z,9.96
2023-03-31T19:12:33.036Z,9.97
2023-03-31T19:15:04.530Z,9.90
2023-03-31T19:17:36.325Z,9.87
2023-03-31T19:20:07.858Z,9.86
2023-03-31T19:22:39.723Z,9.87
2023-03-31T19:25:11.187Z,9.91
2023-03-31T19:27:43.012Z,9.86
2023-03-31T19:30:15.716Z,9.85
2023-03-31T19:32:47.568Z,9.85
2023-03-31T19:35:19.077Z,9.84
2023-03-31T19:37:50.930Z,9.84
2023-03-31T19:40:22.413Z,9.84
2023-03-31T19:42:54.091Z,9.79
2023-03-31T19:45:25.562Z,9.74
2023-03-31T19:47:57.151Z,9.77
2023-03-31T19:50:28.693Z,9.77
2023-03-31T19:53:00.218Z,9.79
2023-03-31T19:55:31.752Z,9.80
2023-03-31T19:58:03.259Z,9.80
2023-03-31T20:00:34.734Z,9.72
2023-03-31T20:03:06.805Z,9.75
2023-03-31T20:05:38.527Z,9.74
2023-03-31T20:08:10.104Z,9.77
2023-03-31T20:10:41.629Z,9.77
2023-03-31T20:13:13.429Z,9.75
2023-03-31T20:15:44.943Z,9.73
2023-03-31T20:18:16.915Z,9.67
2023-03-31T20:20:48.390Z,9.63
2023-03-31T20:23:20.219Z,9.60
2023-03-31T20:25:51.719Z,9.56
2023-03-31T20:28:23.530Z,9.54
2023-03-31T20:30:54.978Z,9.49
2023-03-31T20:33:26.764Z,9.47
2023-03-31T20:35:58.238Z,9.48
2023-03-31T20:38:30.067Z,9.44
2023-03-31T20:41:01.544Z,9.46
2023-03-31T20:43:33.393Z,9.45
2023-03-31T20:46:04.962Z,9.44
2023-03-31T20:48:36.850Z,9.42
2023-03-31T20:51:08.315Z,9.38
2023-03-31T20:53:40.180Z,9.34
2023-03-31T20:56:11.796Z,9.32
2023-03-31T20:58:44.318Z,9.32
2023-03-31T21:01:16.010Z,9.27
2023-03-31T21:03:47.999Z,9.28
2023-03-31T21:06:19.546Z,9.18
2023-03-31T21:08:51.212Z,9.12
2023-03-31T21:11:22.727Z,9.15
2023-03-31T21:13:54.275Z,9.17
2023-03-31T21:16:25.804Z,9.14
2023-03-31T21:18:57.413Z,9.16
2023-03-31T21:21:28.906Z,9.11
2023-03-31T21:24:00.407Z,9.08
2023-03-31T21:26:31.929Z,9.13
2023-03-31T21:29:03.780Z,9.05
2023-03-31T21:31:35.273Z,9.06
2023-03-31T21:34:06.974Z,9.07
2023-03-31T21:36:38.772Z,9.11
2023-03-31T21:39:10.245Z,9.06
2023-03-31T21:41:42.079Z,9.09
2023-03-31T21:44:13.568Z,9.07
2023-03-31T21:46:45.427Z,9.07
2023-03-31T21:49:17.474Z,9.09
2023-03-31T21:51:50.278Z,9.03
2023-03-31T21:54:21.753Z,9.09
2023-03-31T21:56:53.407Z,9.08
2023-03-31T21:59:24.891Z,9.07
2023-03-31T22:01:56.440Z,9.09
2023-03-31T22:04:29.487Z,9.09
2023-03-31T22:07:02.144Z,9.05
2023-03-31T22:09:33.656Z,9.03
2023-03-31T22:12:05.560Z,9.03
2023-03-31T22:14:37.026Z,9.01
2023-03-31T22:17:08.497Z,9.04
2023-03-31T22:19:39.979Z,9.04
2023-03-31T22:22:11.830Z,9.06
2023-03-31T22:24:43.295Z,9.01
2023-03-31T22:27:14.758Z,9.06
2023-03-31T22:29:46.229Z,9.03
2023-03-31T22:32:18.071Z,9.06
2023-03-31T22:34:49.516Z,8.99
2023-03-31T22:37:21.002Z,9.04
2023-03-31T22:39:52.467Z,9.03
2023-03-31T22:42:24.160Z,9.04
2023-03-31T22:44:55.660Z,8.97
2023-03-31T22:47:27.535Z,9.07
2023-03-31T22:49:59.021Z,9.02
2023-03-31T22:52:30.887Z,9.08
2023-03-31T22:55:02.350Z,9.05
2023-03-31T22:57:34.221Z,9.00
2023-03-31T23:00:05.722Z,8.99
2023-03-31T23:02:37.542Z,9.01
2023-03-31T23:05:09.039Z,8.96
2023-03-31T23:07:40.892Z,9.00
2023-03-31T23:10:12.406Z,9.00
2023-03-31T23:12:44.200Z,8.95
2023-03-31T23:15:15.670Z,8.93
2023-03-31T23:17:47.540Z,9.01
2023-03-31T23:20:19.011Z,8.99
2023-03-31T23:22:50.821Z,8.98
2023-03-31T23:25:22.375Z,8.93
2023-03-31T23:27:53.990Z,9.06
2023-03-31T23:30:25.475Z,9.04
2023-03-31T23:32:56.978Z,9.04
2023-03-31T23:35:28.464Z,9.03
2023-03-31T23:38:00.015Z,9.04
2023-03-31T23:40:31.515Z,9.04
2023-03-31T23:43:03.215Z,9.04
2023-03-31T23:45:34.688Z,9.00
2023-03-31T23:48:06.527Z,8.93
2023-03-31T23:50:38.028Z,8.97
2023-03-31T23:53:09.864Z,8.97
2023-03-31T23:55:41.443Z,8.99
2023-03-31T23:58:13.397Z,8.92
